Time;durP1;ratioP1;P1;durP2;ratioP2;P2;SDS_P1;SDS_P2;PMS_P1;PMS_P2;Temp;Humidity;BMP_temperature;BMP_pressure;BME280_temperature;BME280_humidity;BME280_pressure;Samples;Min_cycle;Max_cycle;Signal;HPM_P1;HPM_P2
2023/05/22 00:02:27;;;;;;;11.33;2.37;;;19.80;54.70;;;;;;5199746;28;20762;-47
2023/05/22 00:04:57;;;;;;;3.00;2.80;;;19.70;54.70;;;;;;5215981;28;20471;-46
2023/05/22 00:07:28;;;;;;;2.60;2.50;;;19.70;55.00;;;;;;5184183;28;20486;-45
2023/05/22 00:09:59;;;;;;;3.00;2.90;;;19.70;55.00;;;;;;5200626;28;20210;-46
2023/05/22 00:12:29;;;;;;;4.13;3.00;;;19.60;55.00;;;;;;5215791;28;20187;-47
2023/05/22 00:15:00;;;;;;;3.47;3.13;;;19.60;54.90;;;;;;5199510;28;20168;-46
2023/05/22 00:17:32;;;;;;;8.97;3.60;;;19.60;55.00;;;;;;5184280;28;20584;-45
2023/05/22 00:20:06;;;;;;;5.70;3.13;;;19.60;55.10;;;;;;5199052;28;20405;-47
2023/05/22 00:22:37;;;;;;;3.57;3.37;;;19.50;55.20;;;;;;5187754;28;20470;-45
2023/05/22 00:25:09;;;;;;;3.60;3.20;;;19.50;55.20;;;;;;5207856;28;20469;-45
2023/05/22 00:27:39;;;;;;;4.87;3.13;;;19.40;55.30;;;;;;5201954;28;20462;-45
2023/05/22 00:30:10;;;;;;;3.27;2.63;;;19.40;55.40;;;;;;5202810;28;20465;-45
2023/05/22 00:32:41;;;;;;;6.93;3.10;;;19.40;55.30;;;;;;5202851;28;20270;-47
2023/05/22 00:35:12;;;;;;;3.30;3.10;;;19.40;55.40;;;;;;5202554;28;20518;-45
2023/05/22 00:37:44;;;;;;;2.97;2.77;;;19.30;55.30;;;;;;5205142;28;20207;-46
2023/05/22 00:40:15;;;;;;;3.47;3.13;;;19.30;55.40;;;;;;5205285;28;20179;-46
2023/05/22 00:42:46;;;;;;;4.60;3.00;;;19.20;55.20;;;;;;5207462;28;20434;-44
2023/05/22 00:45:16;;;;;;;3.50;3.20;;;19.30;55.40;;;;;;5209590;28;20853;-45
2023/05/22 00:47:47;;;;;;;2.93;2.73;;;19.20;55.30;;;;;;5208336;28;20219;-45
2023/05/22 00:50:19;;;;;;;3.20;3.00;;;19.20;55.30;;;;;;5207600;28;20184;-44
2023/05/22 00:52:49;;;;;;;3.10;2.77;;;19.20;55.50;;;;;;5203028;28;20714;-46
2023/05/22 00:55:20;;;;;;;2.80;2.60;;;19.10;55.50;;;;;;5202973;28;20458;-45
2023/05/22 00:57:51;;;;;;;3.50;3.20;;;19.10;55.40;;;;;;5204989;28;20286;-45
2023/05/22 01:00:22;;;;;;;3.47;3.27;;;19.00;55.40;;;;;;5202975;28;20183;-46
2023/05/22 01:02:53;;;;;;;6.10;3.10;;;18.90;55.40;;;;;;5204165;28;21134;-45
2023/05/22 01:05:25;;;;;;;4.13;3.70;;;18.90;55.40;;;;;;5204959;28;20496;-45
2023/05/22 01:07:56;;;;;;;2.60;2.50;;;18.90;55.40;;;;;;5201844;28;20211;-44
2023/05/22 01:10:27;;;;;;;3.00;2.90;;;18.90;55.40;;;;;;5206856;28;20434;-44
2023/05/22 01:13:30;;;;;;;3.10;2.53;;;18.90;55.50;;;;;;5203107;28;20182;-46
2023/05/22 01:16:23;;;;;;;2.87;2.77;;;18.80;55.60;;;;;;5210227;28;20998;-46
2023/05/22 01:19:14;;;;;;;8.40;3.20;;;18.80;55.60;;;;;;5205143;28;20446;-44
2023/05/22 01:22:03;;;;;;;3.53;2.70;;;18.80;55.80;;;;;;5198242;28;20434;-45
2023/05/22 01:24:53;;;;;;;3.20;3.00;;;18.70;56.00;;;;;;5208139;28;20426;-44
2023/05/22 01:27:34;;;;;;;2.73;2.53;;;18.60;56.00;;;;;;5202183;28;20740;-45
2023/05/22 01:30:24;;;;;;;3.73;3.00;;;18.60;56.10;;;;;;5202289;28;20640;-45
2023/05/22 01:32:56;;;;;;;3.27;3.07;;;18.50;56.10;;;;;;5202819;28;20966;-44
2023/05/22 01:35:29;;;;;;;3.43;3.13;;;18.50;56.30;;;;;;5202932;28;20434;-44
2023/05/22 01:38:00;;;;;;;6.27;3.20;;;18.50;56.50;;;;;;5203172;28;20878;-44
2023/05/22 01:40:31;;;;;;;3.30;2.87;;;18.40;56.70;;;;;;5207655;28;20419;-46
2023/05/22 01:43:02;;;;;;;3.50;3.30;;;18.30;56.90;;;;;;5205282;28;20434;-45
2023/05/22 01:45:33;;;;;;;3.87;3.40;;;18.30;57.10;;;;;;5204440;28;20434;-45
2023/05/22 01:48:04;;;;;;;8.03;3.33;;;18.20;57.20;;;;;;5201720;28;20208;-45
2023/05/22 01:50:35;;;;;;;3.77;3.43;;;18.10;57.30;;;;;;5202920;28;20465;-45
2023/05/22 01:53:38;;;;;;;3.40;3.23;;;18.10;57.70;;;;;;5201151;28;20598;-45
2023/05/22 01:56:15;;;;;;;9.20;3.67;;;18.00;57.90;;;;;;5200998;28;20200;-46
2023/05/22 01:58:55;;;;;;;6.90;3.80;;;18.00;58.10;;;;;;5203764;28;20492;-46
2023/05/22 02:01:29;;;;;;;2.80;2.60;;;17.80;58.20;;;;;;5205071;28;20813;-45
2023/05/22 02:04:01;;;;;;;3.27;3.00;;;17.80;58.60;;;;;;5203029;28;20476;-45
2023/05/22 02:06:32;;;;;;;4.07;3.30;;;17.70;58.50;;;;;;5203086;28;21238;-45
2023/05/22 02:09:04;;;;;;;3.47;3.13;;;17.70;58.60;;;;;;5202193;28;20986;-46
2023/05/22 02:11:37;;;;;;;5.93;3.87;;;17.70;58.70;;;;;;5201704;28;20435;-45
2023/05/22 02:14:10;;;;;;;5.50;2.93;;;17.60;58.70;;;;;;5199339;28;20431;-46
2023/05/22 02:16:45;;;;;;;13.03;3.80;;;17.60;58.80;;;;;;5201948;28;20835;-45
2023/05/22 02:19:16;;;;;;;4.10;3.70;;;17.50;58.80;;;;;;5205114;28;20440;-46
2023/05/22 02:21:47;;;;;;;4.37;2.90;;;17.50;59.00;;;;;;5211148;28;20438;-44
2023/05/22 02:24:17;;;;;;;3.13;2.93;;;17.50;59.30;;;;;;5204740;28;20211;-44
2023/05/22 02:26:48;;;;;;;3.23;2.93;;;17.40;59.70;;;;;;5202168;28;20207;-44
2023/05/22 02:29:18;;;;;;;7.17;3.70;;;17.40;59.40;;;;;;5183061;28;20230;-44
2023/05/22 02:31:52;;;;;;;3.60;3.30;;;17.30;59.50;;;;;;5203950;28;20195;-44
2023/05/22 02:34:22;;;;;;;4.97;2.87;;;17.30;59.70;;;;;;5200175;28;20311;-45
2023/05/22 02:36:55;;;;;;;6.10;3.30;;;17.30;59.60;;;;;;5202664;28;20545;-46
2023/05/22 02:39:26;;;;;;;2.50;2.40;;;17.20;59.80;;;;;;5202645;28;20644;-46
2023/05/22 02:41:56;;;;;;;3.63;3.33;;;17.10;59.90;;;;;;5198010;28;20442;-44
2023/05/22 02:44:27;;;;;;;3.53;3.20;;;17.10;60.00;;;;;;5198943;28;20457;-46
2023/05/22 02:46:58;;;;;;;12.93;3.80;;;17.00;60.00;;;;;;5183740;28;20203;-45
2023/05/22 02:49:28;;;;;;;3.13;2.93;;;17.00;60.30;;;;;;5199505;28;20257;-46
2023/05/22 02:51:59;;;;;;;3.40;3.20;;;17.00;60.40;;;;;;5204779;28;20180;-46
2023/05/22 02:54:29;;;;;;;3.47;3.03;;;17.00;60.60;;;;;;5197279;28;20273;-45
2023/05/22 02:57:01;;;;;;;2.97;2.87;;;16.90;60.50;;;;;;5197878;28;20265;-46
2023/05/22 02:59:32;;;;;;;3.80;3.40;;;16.90;60.70;;;;;;5199317;28;20267;-46
2023/05/22 03:02:04;;;;;;;5.90;3.07;;;16.90;61.00;;;;;;5197753;28;20446;-46
2023/05/22 03:04:37;;;;;;;5.17;3.60;;;16.80;61.10;;;;;;5200954;28;20453;-44
2023/05/22 03:07:08;;;;;;;3.97;3.17;;;16.80;61.30;;;;;;5204206;28;20454;-44
2023/05/22 03:09:39;;;;;;;5.80;3.53;;;16.80;61.50;;;;;;5206878;28;20458;-44
2023/05/22 03:12:10;;;;;;;4.20;3.70;;;16.70;61.80;;;;;;5203178;28;20449;-45
2023/05/22 03:14:40;;;;;;;3.80;3.40;;;16.70;62.00;;;;;;5205097;28;20175;-47
2023/05/22 03:17:11;;;;;;;4.83;3.40;;;16.70;62.10;;;;;;5204994;28;20291;-45
2023/05/22 03:19:41;;;;;;;3.87;3.50;;;16.70;62.30;;;;;;5206440;28;20187;-44
2023/05/22 03:22:12;;;;;;;6.83;3.93;;;16.60;62.40;;;;;;5202087;28;20175;-45
2023/05/22 03:24:43;;;;;;;5.70;3.30;;;16.60;62.70;;;;;;5203541;28;20183;-44
2023/05/22 03:27:17;;;;;;;4.30;3.53;;;16.60;62.80;;;;;;5204812;28;20227;-44
2023/05/22 03:29:47;;;;;;;3.43;3.23;;;16.60;63.10;;;;;;5203566;28;20207;-44
2023/05/22 03:32:18;;;;;;;3.70;3.40;;;16.60;63.20;;;;;;5205084;28;20443;-46
2023/05/22 03:34:49;;;;;;;5.97;3.50;;;16.60;63.40;;;;;;5204907;28;20245;-44
2023/05/22 03:37:19;;;;;;;3.57;3.23;;;16.60;63.50;;;;;;5201388;28;20195;-45
2023/05/22 03:39:50;;;;;;;4.10;3.10;;;16.60;63.70;;;;;;5201266;28;20175;-46
2023/05/22 03:42:20;;;;;;;5.10;3.30;;;16.60;63.40;;;;;;5203417;28;20176;-45
2023/05/22 03:44:51;;;;;;;4.00;3.70;;;16.60;63.80;;;;;;5216747;28;20214;-44
2023/05/22 03:47:22;;;;;;;3.80;3.50;;;16.60;63.90;;;;;;5203642;28;20207;-45
2023/05/22 03:49:52;;;;;;;3.80;3.50;;;16.60;64.10;;;;;;5204459;28;20208;-45
2023/05/22 03:52:23;;;;;;;6.70;3.60;;;16.60;64.20;;;;;;5199186;28;20180;-47
2023/05/22 03:54:53;;;;;;;3.90;3.50;;;16.70;64.40;;;;;;5201808;28;20191;-44
2023/05/22 03:57:24;;;;;;;3.87;3.50;;;16.70;64.40;;;;;;5187074;28;20283;-47
2023/05/22 03:59:55;;;;;;;3.90;3.60;;;16.70;64.20;;;;;;5202100;28;20179;-45
2023/05/22 04:02:28;;;;;;;3.67;3.40;;;16.80;64.40;;;;;;5203023;28;20179;-45
2023/05/22 04:04:59;;;;;;;3.73;3.53;;;16.80;64.50;;;;;;5204442;28;20210;-45
2023/05/22 04:07:31;;;;;;;4.43;3.80;;;16.80;64.40;;;;;;5203934;28;20986;-45
2023/05/22 04:10:05;;;;;;;4.63;4.00;;;16.90;64.30;;;;;;5204848;28;20195;-45
2023/05/22 04:12:36;;;;;;;7.30;3.77;;;16.90;64.40;;;;;;5201003;28;20462;-45
2023/05/22 04:15:07;;;;;;;7.17;4.00;;;17.00;64.10;;;;;;5205172;28;20434;-45
2023/05/22 04:17:40;;;;;;;7.17;3.70;;;17.10;64.10;;;;;;5206634;28;20216;-45
2023/05/22 04:20:11;;;;;;;5.00;3.87;;;17.30;63.80;;;;;;5206231;28;20415;-44
2023/05/22 04:22:44;;;;;;;3.60;3.10;;;17.70;62.00;;;;;;5208168;28;20466;-45
2023/05/22 04:25:15;;;;;;;6.97;4.00;;;17.80;61.90;;;;;;5204089;28;20530;-46
2023/05/22 04:27:46;;;;;;;3.97;3.70;;;17.80;62.20;;;;;;5204565;28;20571;-47
2023/05/22 04:30:17;;;;;;;4.53;3.40;;;17.80;62.20;;;;;;5201199;28;20222;-46
2023/05/22 04:32:48;;;;;;;8.60;4.30;;;17.70;62.00;;;;;;5187265;28;20446;-46
2023/05/22 04:35:19;;;;;;;14.67;4.00;;;17.80;62.10;;;;;;5206742;28;20222;-45
2023/05/22 04:37:50;;;;;;;7.63;4.10;;;17.80;62.10;;;;;;5208430;28;20478;-46
2023/05/22 04:40:20;;;;;;;8.13;3.43;;;17.90;62.40;;;;;;5205154;28;20261;-45
2023/05/22 04:42:53;;;;;;;9.57;3.93;;;18.00;62.10;;;;;;5200275;28;20718;-44
2023/05/22 04:45:24;;;;;;;5.93;4.13;;;18.20;61.40;;;;;;5203983;28;20191;-45
2023/05/22 04:47:55;;;;;;;4.83;3.83;;;18.30;61.10;;;;;;5207174;28;20550;-46
2023/05/22 04:50:25;;;;;;;5.07;3.87;;;18.50;60.70;;;;;;5220131;28;20435;-45
2023/05/22 04:52:58;;;;;;;4.03;3.27;;;18.80;60.20;;;;;;5206905;28;20922;-45
2023/05/22 04:55:32;;;;;;;6.40;3.43;;;19.10;59.30;;;;;;5208206;28;20591;-47
2023/05/22 04:58:04;;;;;;;6.43;4.13;;;19.40;58.70;;;;;;5207701;28;20442;-45
2023/05/22 05:00:35;;;;;;;4.73;4.30;;;19.70;58.40;;;;;;5196303;28;20438;-45
2023/05/22 05:03:06;;;;;;;4.43;3.87;;;20.20;57.50;;;;;;5205522;28;20479;-46
2023/05/22 05:05:37;;;;;;;3.73;3.40;;;20.90;56.20;;;;;;5204163;28;20247;-45
2023/05/22 05:08:08;;;;;;;4.00;3.60;;;21.30;54.70;;;;;;5210815;28;20537;-46
2023/05/22 05:10:38;;;;;;;9.40;4.03;;;21.50;54.30;;;;;;5205747;28;20191;-46
2023/05/22 05:13:09;;;;;;;3.83;3.60;;;21.30;54.00;;;;;;5203241;28;20652;-46
2023/05/22 05:15:40;;;;;;;8.60;4.10;;;20.70;54.50;;;;;;5204746;28;20210;-46
2023/05/22 05:18:11;;;;;;;9.77;4.40;;;20.50;55.40;;;;;;5202996;28;20207;-45
2023/05/22 05:20:41;;;;;;;4.67;4.10;;;20.40;55.90;;;;;;5205547;28;20176;-46
2023/05/22 05:23:12;;;;;;;5.80;4.13;;;20.60;55.70;;;;;;5204555;28;20426;-46
2023/05/22 05:25:43;;;;;;;12.90;3.83;;;20.60;55.20;;;;;;5218844;28;20180;-45
2023/05/22 05:28:13;;;;;;;4.63;3.53;;;20.50;55.60;;;;;;5204239;28;20211;-45
2023/05/22 05:30:44;;;;;;;3.73;3.43;;;20.70;55.50;;;;;;5204611;28;20180;-45
2023/05/22 05:33:15;;;;;;;8.67;4.20;;;20.70;56.00;;;;;;5219557;28;20172;-45
2023/05/22 05:35:45;;;;;;;7.13;4.20;;;20.50;55.80;;;;;;5203773;28;20176;-44
2023/05/22 05:38:16;;;;;;;5.83;4.30;;;20.50;55.80;;;;;;5205358;28;20204;-45
2023/05/22 05:40:47;;;;;;;8.50;4.10;;;20.70;55.60;;;;;;5203844;28;20210;-50
2023/05/22 05:43:18;;;;;;;7.90;4.60;;;20.70;55.40;;;;;;5202959;28;20180;-45
2023/05/22 05:45:48;;;;;;;6.60;3.50;;;20.80;55.40;;;;;;5204761;28;20184;-45
2023/05/22 05:48:19;;;;;;;9.20;4.17;;;21.00;55.30;;;;;;5204878;28;20316;-45
2023/05/22 05:50:49;;;;;;;9.20;4.83;;;21.90;54.30;;;;;;5207488;28;20171;-45
2023/05/22 05:53:20;;;;;;;7.97;4.10;;;23.10;51.90;;;;;;5206825;28;20220;-47
2023/05/22 05:55:51;;;;;;;3.73;3.43;;;24.30;49.80;;;;;;5202428;28;20172;-44
2023/05/22 05:58:21;;;;;;;4.73;4.07;;;24.80;49.10;;;;;;5198450;28;20179;-45
2023/05/22 06:00:52;;;;;;;3.73;3.43;;;25.30;48.10;;;;;;5197309;28;20191;-45
2023/05/22 06:03:24;;;;;;;7.57;3.97;;;25.70;47.00;;;;;;5204333;28;20183;-46
2023/05/22 06:05:56;;;;;;;12.23;4.20;;;26.00;46.80;;;;;;5203016;28;20209;-45
2023/05/22 06:08:27;;;;;;;9.07;4.20;;;26.10;46.10;;;;;;5205073;28;20480;-45
2023/05/22 06:10:57;;;;;;;4.20;3.70;;;26.00;45.60;;;;;;5199848;28;20434;-43
2023/05/22 06:13:28;;;;;;;9.20;4.57;;;25.40;46.40;;;;;;5202163;28;20183;-46
2023/05/22 06:15:59;;;;;;;8.23;4.20;;;25.20;47.00;;;;;;5208284;28;20226;-45
2023/05/22 06:18:29;;;;;;;6.50;3.70;;;25.50;47.10;;;;;;5200213;28;20203;-46
2023/05/22 06:21:00;;;;;;;5.73;3.80;;;25.50;46.70;;;;;;5203152;28;20187;-45
2023/05/22 06:23:31;;;;;;;4.20;3.80;;;25.10;47.20;;;;;;5199299;28;20191;-48
2023/05/22 06:26:01;;;;;;;4.03;3.60;;;25.00;47.50;;;;;;5198125;28;20210;-47
2023/05/22 06:28:32;;;;;;;5.00;3.90;;;24.80;47.90;;;;;;5202422;28;20298;-47
2023/05/22 06:31:03;;;;;;;3.60;3.40;;;24.90;48.40;;;;;;5192845;28;20663;-45
2023/05/22 06:33:36;;;;;;;5.67;4.43;;;25.40;47.40;;;;;;5194776;28;20365;-45
2023/05/22 06:36:08;;;;;;;4.87;3.83;;;25.40;47.10;;;;;;5195295;28;20198;-45
2023/05/22 06:38:39;;;;;;;9.27;4.10;;;25.30;47.20;;;;;;5198971;28;20449;-48
2023/05/22 06:41:10;;;;;;;3.97;3.67;;;25.00;47.30;;;;;;5196051;28;20520;-45
2023/05/22 06:43:40;;;;;;;4.40;4.07;;;24.50;48.30;;;;;;5198743;28;20477;-45
2023/05/22 06:46:11;;;;;;;5.20;4.10;;;24.50;49.30;;;;;;5193266;28;20215;-56
2023/05/22 06:48:42;;;;;;;6.27;4.03;;;25.00;48.40;;;;;;5197505;28;20706;-46
2023/05/22 06:51:13;;;;;;;7.00;4.37;;;25.40;47.90;;;;;;5195047;28;20243;-45
2023/05/22 06:53:44;;;;;;;5.83;4.20;;;25.50;47.40;;;;;;5198730;28;20182;-48
2023/05/22 06:56:15;;;;;;;4.40;4.00;;;25.30;47.60;;;;;;5202829;28;20845;-46
2023/05/22 06:58:45;;;;;;;15.63;4.50;;;25.70;48.00;;;;;;5199521;28;20184;-46
2023/05/22 07:01:16;;;;;;;4.40;3.80;;;26.00;47.10;;;;;;5195850;28;20179;-47
2023/05/22 07:03:46;;;;;;;49.10;4.80;;;26.40;46.90;;;;;;5198411;28;20192;-46
2023/05/22 07:06:17;;;;;;;5.00;4.30;;;26.50;46.20;;;;;;5195811;28;20207;-51
2023/05/22 07:08:48;;;;;;;6.43;4.03;;;26.80;45.80;;;;;;5197439;28;20230;-49
2023/05/22 07:11:19;;;;;;;9.23;4.33;;;26.80;45.00;;;;;;5199478;28;20200;-49
2023/05/22 07:13:49;;;;;;;6.87;5.10;;;26.70;45.60;;;;;;5192300;28;20200;-50
2023/05/22 07:16:22;;;;;;;12.23;4.30;;;27.30;45.30;;;;;;5197027;28;20212;-51
2023/05/22 07:18:52;;;;;;;5.00;4.50;;;27.60;44.40;;;;;;5197379;28;20183;-47
2023/05/22 07:21:23;;;;;;;5.70;4.70;;;27.80;43.90;;;;;;5198033;28;20454;-49
2023/05/22 07:23:53;;;;;;;6.63;4.33;;;27.90;43.60;;;;;;5199046;28;20245;-49
2023/05/22 07:26:25;;;;;;;4.50;4.10;;;27.80;43.90;;;;;;5184087;28;20283;-47
2023/05/22 07:28:56;;;;;;;4.63;3.93;;;27.70;44.40;;;;;;5195946;28;20211;-47
2023/05/22 07:31:27;;;;;;;10.63;4.20;;;27.50;44.50;;;;;;5202321;28;20449;-48
2023/05/22 07:33:57;;;;;;;16.13;4.73;;;27.50;44.90;;;;;;5202027;28;20668;-48
2023/05/22 07:36:28;;;;;;;4.40;4.00;;;27.70;44.60;;;;;;5201824;28;20190;-48
2023/05/22 07:38:59;;;;;;;4.93;4.40;;;28.00;44.60;;;;;;5204677;28;20191;-48
2023/05/22 07:41:29;;;;;;;9.87;3.80;;;28.20;44.00;;;;;;5195888;28;20605;-48
2023/05/22 07:44:00;;;;;;;15.83;5.20;;;28.40;43.40;;;;;;5203304;28;20253;-48
2023/05/22 07:46:31;;;;;;;8.97;5.63;;;28.60;43.10;;;;;;5199507;28;20199;-47
2023/05/22 07:49:01;;;;;;;6.90;4.37;;;28.70;42.20;;;;;;5200414;28;20224;-48
2023/05/22 07:51:32;;;;;;;4.80;4.30;;;28.20;42.90;;;;;;5196611;28;21054;-48
2023/05/22 07:54:03;;;;;;;8.30;3.67;;;28.40;43.00;;;;;;5200047;28;20183;-49
2023/05/22 07:56:38;;;;;;;6.23;4.20;;;28.80;42.50;;;;;;5201199;28;20211;-46
2023/05/22 07:59:10;;;;;;;8.17;3.93;;;29.30;41.80;;;;;;5198219;28;20429;-47
2023/05/22 08:01:41;;;;;;;18.50;4.30;;;29.80;40.30;;;;;;5200189;28;20442;-47
2023/05/22 08:04:12;;;;;;;8.83;4.33;;;30.10;40.30;;;;;;5200313;28;20444;-48
2023/05/22 08:06:43;;;;;;;4.93;3.73;;;30.10;40.00;;;;;;5199540;28;20218;-46
2023/05/22 08:09:13;;;;;;;4.67;3.90;;;29.60;40.10;;;;;;5201499;28;20242;-49
2023/05/22 08:11:44;;;;;;;3.50;3.30;;;28.70;41.20;;;;;;5202395;28;20527;-47
2023/05/22 08:14:15;;;;;;;9.67;4.50;;;28.30;42.20;;;;;;5198117;28;20604;-48
2023/05/22 08:16:45;;;;;;;7.03;4.70;;;28.40;42.40;;;;;;5211310;28;20741;-47
2023/05/22 08:19:16;;;;;;;4.27;3.87;;;28.60;42.70;;;;;;5196122;28;20248;-48
2023/05/22 08:21:46;;;;;;;4.20;3.80;;;29.00;42.10;;;;;;5196772;28;20286;-47
2023/05/22 08:24:17;;;;;;;12.77;4.50;;;29.50;42.10;;;;;;5194969;28;20196;-46
2023/05/22 08:26:48;;;;;;;7.70;3.70;;;30.20;40.50;;;;;;5197579;28;20277;-46
2023/05/22 08:29:19;;;;;;;3.57;3.40;;;30.50;39.30;;;;;;5198529;28;20306;-47
2023/05/22 08:31:52;;;;;;;10.03;3.73;;;29.80;38.90;;;;;;5178898;28;20199;-49
2023/05/22 08:34:27;;;;;;;3.97;3.67;;;28.90;41.40;;;;;;5194860;28;20183;-49
2023/05/22 08:36:58;;;;;;;14.87;3.73;;;27.80;42.50;;;;;;5196900;28;20452;-49
2023/05/22 08:39:29;;;;;;;5.17;3.90;;;26.90;44.10;;;;;;5196993;28;20437;-50
2023/05/22 08:42:02;;;;;;;9.10;3.97;;;26.50;45.70;;;;;;5195551;28;20188;-48
2023/05/22 08:44:32;;;;;;;3.80;3.30;;;26.30;46.40;;;;;;5184331;28;20443;-48
2023/05/22 08:47:08;;;;;;;6.60;4.20;;;25.70;46.10;;;;;;5199170;28;20469;-49
2023/05/22 08:49:39;;;;;;;4.13;3.57;;;25.10;47.60;;;;;;5210301;28;20666;-49
2023/05/22 08:52:17;;;;;;;7.40;3.30;;;25.00;48.70;;;;;;5194935;28;20517;-52
2023/05/22 08:54:55;;;;;;;8.17;3.43;;;24.80;48.30;;;;;;5198673;28;20793;-48
2023/05/22 08:57:26;;;;;;;6.17;3.60;;;24.70;48.30;;;;;;5205513;28;20580;-49
2023/05/22 08:59:57;;;;;;;6.77;3.20;;;24.90;48.50;;;;;;5183277;28;20442;-50
2023/05/22 09:02:27;;;;;;;7.63;3.20;;;25.00;49.00;;;;;;5203961;28;20179;-49
2023/05/22 09:05:00;;;;;;;4.43;3.70;;;24.90;48.80;;;;;;5202981;28;20191;-49
2023/05/22 09:07:31;;;;;;;3.10;2.90;;;24.80;48.40;;;;;;5206986;28;20226;-50
2023/05/22 09:10:04;;;;;;;21.83;4.30;;;24.50;48.90;;;;;;5189596;28;20477;-48
2023/05/22 09:12:34;;;;;;;17.67;3.73;;;24.40;49.00;;;;;;5204567;28;20194;-47
2023/05/22 09:15:09;;;;;;;5.27;3.17;;;24.50;49.50;;;;;;5200791;28;20446;-48
2023/05/22 09:17:40;;;;;;;4.83;3.17;;;24.70;48.90;;;;;;5177481;28;20593;-49
2023/05/22 09:20:14;;;;;;;7.07;3.40;;;24.90;48.80;;;;;;5203397;28;20446;-48
2023/05/22 09:22:46;;;;;;;6.97;3.80;;;24.90;48.70;;;;;;5206612;28;20183;-50
2023/05/22 09:25:18;;;;;;;3.70;3.30;;;25.10;48.40;;;;;;5199587;28;20469;-51
2023/05/22 09:27:49;;;;;;;7.00;3.53;;;25.20;48.00;;;;;;5195700;28;20466;-49
2023/05/22 09:30:20;;;;;;;3.17;2.97;;;25.00;48.00;;;;;;5205153;28;20501;-48
2023/05/22 09:32:51;;;;;;;6.53;3.63;;;25.00;48.20;;;;;;5199536;28;20214;-47
2023/05/22 09:35:26;;;;;;;3.57;3.27;;;24.90;48.50;;;;;;5209644;28;20941;-48
2023/05/22 09:37:58;;;;;;;4.63;3.03;;;24.80;49.10;;;;;;5206099;28;20568;-50
2023/05/22 09:40:28;;;;;;;4.53;3.57;;;24.90;48.60;;;;;;5203354;28;20470;-51
2023/05/22 09:43:00;;;;;;;3.50;3.20;;;25.10;48.60;;;;;;5202151;28;21477;-49
2023/05/22 09:45:34;;;;;;;5.60;3.63;;;25.20;48.20;;;;;;5202615;28;20191;-50
2023/05/22 09:48:05;;;;;;;6.07;3.37;;;25.10;48.00;;;;;;5209113;28;20441;-48
2023/05/22 09:50:36;;;;;;;3.40;3.13;;;24.90;48.60;;;;;;5198188;28;20434;-51
2023/05/22 09:53:09;;;;;;;7.90;3.50;;;24.80;49.20;;;;;;5204362;28;20471;-50
2023/05/22 09:55:39;;;;;;;4.40;3.67;;;24.70;48.50;;;;;;5201005;28;20957;-49
2023/05/22 09:58:15;;;;;;;7.27;3.27;;;24.70;48.50;;;;;;5198555;28;20534;-50
2023/05/22 10:00:47;;;;;;;3.40;3.10;;;24.50;48.30;;;;;;5205721;28;20338;-48
2023/05/22 10:03:22;;;;;;;4.37;3.03;;;24.50;49.00;;;;;;5200917;28;21209;-48
2023/05/22 10:05:57;;;;;;;9.47;3.23;;;24.60;48.60;;;;;;5198726;28;20442;-49
2023/05/22 10:08:28;;;;;;;6.90;3.07;;;24.60;48.60;;;;;;5206508;28;20469;-47
2023/05/22 10:10:58;;;;;;;11.10;3.40;;;24.60;48.90;;;;;;5207390;28;20498;-50
2023/05/22 10:13:30;;;;;;;9.20;3.17;;;24.70;49.00;;;;;;5202918;28;20524;-49
2023/05/22 10:16:01;;;;;;;5.30;3.30;;;24.70;48.90;;;;;;5200696;28;20699;-50
2023/05/22 10:18:32;;;;;;;7.77;3.30;;;24.90;48.70;;;;;;5217753;28;21144;-49
2023/05/22 10:21:03;;;;;;;3.67;3.17;;;24.90;48.30;;;;;;5201427;28;20444;-46
2023/05/22 10:23:34;;;;;;;3.80;3.40;;;25.00;48.30;;;;;;5195338;28;20252;-49
2023/05/22 10:26:06;;;;;;;3.73;3.07;;;25.20;48.10;;;;;;5193141;28;20466;-48
2023/05/22 10:28:52;;;;;;;5.43;3.23;;;25.00;47.50;;;;;;5200279;28;20287;-49
2023/05/22 10:31:41;;;;;;;4.30;3.33;;;24.90;48.00;;;;;;5221463;28;20434;-49
2023/05/22 10:34:21;;;;;;;3.90;3.43;;;24.90;47.80;;;;;;5205261;28;20469;-49
2023/05/22 10:37:16;;;;;;;5.27;3.57;;;25.00;48.10;;;;;;5203511;28;20462;-48
2023/05/22 10:39:53;;;;;;;3.33;3.10;;;25.00;47.50;;;;;;5205866;28;20970;-50
2023/05/22 10:42:28;;;;;;;3.30;3.00;;;24.90;47.50;;;;;;5218824;28;20452;-48
2023/05/22 10:45:03;;;;;;;40.40;3.83;;;24.80;47.40;;;;;;5206382;28;20957;-49
2023/05/22 10:47:33;;;;;;;2.50;2.40;;;24.90;47.50;;;;;;5203055;28;20519;-49
2023/05/22 10:50:08;;;;;;;4.60;2.80;;;25.00;47.30;;;;;;5204711;28;20462;-47
2023/05/22 10:52:39;;;;;;;2.83;2.63;;;25.20;47.30;;;;;;5202134;28;20587;-50
2023/05/22 10:55:10;;;;;;;7.80;3.30;;;25.20;46.80;;;;;;5205739;28;20430;-47
2023/05/22 10:57:41;;;;;;;5.80;3.67;;;25.30;46.20;;;;;;5207466;28;20206;-48
2023/05/22 11:00:14;;;;;;;2.97;2.60;;;25.50;46.00;;;;;;5204662;28;20673;-47
2023/05/22 11:02:45;;;;;;;6.50;2.97;;;25.40;45.70;;;;;;5204623;28;20266;-50
2023/05/22 11:05:20;;;;;;;3.50;3.30;;;25.30;45.60;;;;;;5196616;28;20565;-50
2023/05/22 11:07:51;;;;;;;4.57;3.60;;;25.10;46.40;;;;;;5195491;28;20207;-50
2023/05/22 11:11:00;;;;;;;5.40;3.50;;;25.10;45.80;;;;;;5203061;28;20459;-49
2023/05/22 11:13:33;;;;;;;2.93;2.73;;;25.00;45.90;;;;;;5204351;28;20183;-49
2023/05/22 11:16:05;;;;;;;3.43;3.13;;;25.10;45.60;;;;;;5202879;28;20458;-51
2023/05/22 11:18:35;;;;;;;3.20;3.00;;;25.00;45.00;;;;;;5200757;28;20608;-48
2023/05/22 11:21:10;;;;;;;3.80;3.47;;;25.00;45.00;;;;;;5203422;28;20549;-49
2023/05/22 11:23:40;;;;;;;3.70;3.27;;;25.00;44.90;;;;;;5196747;28;20171;-49
2023/05/22 11:26:21;;;;;;;4.10;2.10;;;25.00;44.80;;;;;;5189012;28;20481;-49
2023/05/22 11:28:52;;;;;;;3.30;2.63;;;24.90;44.50;;;;;;5197552;28;20594;-52
2023/05/22 11:31:23;;;;;;;2.53;2.33;;;24.90;44.30;;;;;;5194726;28;20438;-49
2023/05/22 11:33:54;;;;;;;4.43;3.10;;;24.90;44.10;;;;;;5196803;28;20437;-48
2023/05/22 11:36:26;;;;;;;4.33;3.20;;;24.90;44.20;;;;;;5201356;28;20881;-49
2023/05/22 11:39:00;;;;;;;3.50;3.17;;;25.00;43.50;;;;;;5202735;28;20184;-49
2023/05/22 11:41:34;;;;;;;6.60;2.90;;;25.00;43.30;;;;;;5201245;28;20435;-48
2023/05/22 11:44:07;;;;;;;6.03;2.23;;;25.00;43.70;;;;;;5199561;28;20445;-50
2023/05/22 11:46:38;;;;;;;9.83;3.30;;;25.10;42.90;;;;;;5196104;28;20950;-47
2023/05/22 11:49:12;;;;;;;3.40;3.20;;;25.30;42.80;;;;;;5196946;28;21005;-50
2023/05/22 11:51:43;;;;;;;5.73;2.50;;;25.20;42.10;;;;;;5204294;28;20525;-47
2023/05/22 11:54:17;;;;;;;6.63;2.60;;;25.30;42.40;;;;;;5198737;28;20480;-50
2023/05/22 11:56:47;;;;;;;4.33;2.57;;;25.20;42.90;;;;;;5208959;28;20514;-52
2023/05/22 11:59:20;;;;;;;4.93;2.70;;;25.40;42.10;;;;;;5198157;28;20592;-48
2023/05/22 12:01:51;;;;;;;3.53;3.10;;;25.30;41.30;;;;;;5199200;28;20187;-48
2023/05/22 12:04:22;;;;;;;3.20;2.90;;;25.20;41.30;;;;;;5196820;28;20426;-48
2023/05/22 12:06:53;;;;;;;2.70;2.50;;;25.10;41.50;;;;;;5196119;28;20238;-47
2023/05/22 12:09:26;;;;;;;4.53;2.40;;;25.00;41.50;;;;;;5196551;28;20244;-48
2023/05/22 12:11:57;;;;;;;12.30;3.13;;;25.00;42.10;;;;;;5203286;28;20562;-50
2023/05/22 12:14:30;;;;;;;8.93;3.43;;;25.00;41.70;;;;;;5198653;28;20429;-49
2023/05/22 12:17:03;;;;;;;4.33;2.60;;;25.10;41.80;;;;;;5207696;28;20219;-47
2023/05/22 12:19:33;;;;;;;4.83;2.23;;;25.10;41.20;;;;;;5206009;28;20814;-48
2023/05/22 12:22:04;;;;;;;6.00;2.60;;;25.20;41.40;;;;;;5202609;28;20742;-49
2023/05/22 12:24:39;;;;;;;15.40;2.53;;;25.20;40.80;;;;;;5209205;28;20194;-49
2023/05/22 12:27:11;;;;;;;2.20;2.10;;;25.10;40.90;;;;;;5208372;28;20202;-48
2023/05/22 12:29:42;;;;;;;6.07;2.47;;;25.20;41.30;;;;;;5208323;28;20540;-48
2023/05/22 12:32:12;;;;;;;3.47;2.57;;;25.30;41.20;;;;;;5225462;28;20444;-50
2023/05/22 12:34:48;;;;;;;4.70;2.87;;;25.40;40.90;;;;;;5211351;28;20441;-50
2023/05/22 12:37:24;;;;;;;2.83;2.63;;;25.40;40.70;;;;;;5206099;28;20279;-50
2023/05/22 12:39:59;;;;;;;3.30;3.10;;;25.50;39.80;;;;;;5206816;28;20430;-48
2023/05/22 12:42:30;;;;;;;3.07;2.77;;;25.60;39.90;;;;;;5211128;28;20453;-50
2023/05/22 12:45:01;;;;;;;2.70;2.50;;;25.60;39.90;;;;;;5198368;28;20449;-50
2023/05/22 12:47:31;;;;;;;19.23;2.80;;;25.50;39.50;;;;;;5209130;28;20256;-47
2023/05/22 12:50:02;;;;;;;3.30;2.70;;;25.40;39.30;;;;;;5202626;28;20208;-49
2023/05/22 12:52:34;;;;;;;4.23;3.30;;;25.50;39.90;;;;;;5199485;28;20187;-49
2023/05/22 12:55:06;;;;;;;2.73;2.53;;;25.50;38.50;;;;;;5195866;28;20271;-50
2023/05/22 12:57:36;;;;;;;8.03;2.47;;;25.40;38.90;;;;;;5203435;28;20470;-48
2023/05/22 13:00:07;;;;;;;2.87;2.67;;;25.40;39.60;;;;;;5206808;28;20442;-51
2023/05/22 13:02:38;;;;;;;2.90;2.67;;;25.40;39.40;;;;;;5206429;28;20180;-49
2023/05/22 13:05:08;;;;;;;2.37;2.17;;;25.40;39.50;;;;;;5206250;28;20433;-49
2023/05/22 13:07:39;;;;;;;2.67;2.47;;;25.40;38.70;;;;;;5199118;28;20203;-50
2023/05/22 13:10:10;;;;;;;3.47;2.00;;;25.50;39.00;;;;;;5201702;28;20257;-47
2023/05/22 13:12:41;;;;;;;5.33;2.80;;;25.70;38.60;;;;;;5201322;28;20186;-49